sensor_id;sensor_type;location;lat;lon;timestamp;P1;durP1;ratioP1;P2;durP2;ratioP2
1649;SDS011;822;53.670;8.676;2023-04-24T00:01:31;2.57;;;2.37;;
1649;SDS011;822;53.670;8.676;2023-04-24T00:03:59;2.90;;;2.70;;
1649;SDS011;822;53.670;8.676;2023-04-24T00:06:26;3.60;;;2.97;;
1649;SDS011;822;53.670;8.676;2023-04-24T00:08:58;2.77;;;2.57;;
1649;SDS011;822;53.670;8.676;2023-04-24T00:11:25;3.40;;;2.80;;
1649;SDS011;822;53.670;8.676;2023-04-24T00:13:54;2.77;;;2.50;;
1649;SDS011;822;53.670;8.676;2023-04-24T00:16:21;2.93;;;2.73;;
1649;SDS011;822;53.670;8.676;2023-04-24T00:18:48;3.13;;;2.87;;
1649;SDS011;822;53.670;8.676;2023-04-24T00:21:17;3.30;;;3.00;;
1649;SDS011;822;53.670;8.676;2023-04-24T00:23:45;2.60;;;2.50;;
1649;SDS011;822;53.670;8.676;2023-04-24T00:26:12;3.47;;;3.10;;
1649;SDS011;822;53.670;8.676;2023-04-24T00:28:40;2.93;;;2.73;;
1649;SDS011;822;53.670;8.676;2023-04-24T00:31:08;3.03;;;2.83;;
1649;SDS011;822;53.670;8.676;2023-04-24T00:33:35;2.30;;;2.10;;
1649;SDS011;822;53.670;8.676;2023-04-24T00:36:03;3.90;;;2.53;;
1649;SDS011;822;53.670;8.676;2023-04-24T00:38:31;2.50;;;2.30;;
1649;SDS011;822;53.670;8.676;2023-04-24T00:40:58;2.50;;;2.30;;
1649;SDS011;822;53.670;8.676;2023-04-24T00:43:28;4.93;;;2.50;;
1649;SDS011;822;53.670;8.676;2023-04-24T00:45:55;2.00;;;1.90;;
1649;SDS011;822;53.670;8.676;2023-04-24T00:48:24;2.97;;;1.93;;
1649;SDS011;822;53.670;8.676;2023-04-24T00:50:51;1.80;;;1.70;;
1649;SDS011;822;53.670;8.676;2023-04-24T00:53:19;2.93;;;2.63;;
1649;SDS011;822;53.670;8.676;2023-04-24T00:55:46;2.10;;;1.60;;
1649;SDS011;822;53.670;8.676;2023-04-24T00:58:13;1.80;;;1.70;;
1649;SDS011;822;53.670;8.676;2023-04-24T01:00:40;1.90;;;1.80;;
1649;SDS011;822;53.670;8.676;2023-04-24T01:03:07;1.80;;;1.70;;
1649;SDS011;822;53.670;8.676;2023-04-24T01:05:37;2.23;;;2.03;;
1649;SDS011;822;53.670;8.676;2023-04-24T01:08:04;2.40;;;2.20;;
1649;SDS011;822;53.670;8.676;2023-04-24T01:10:31;2.27;;;2.00;;
1649;SDS011;822;53.670;8.676;2023-04-24T01:13:01;2.30;;;2.00;;
1649;SDS011;822;53.670;8.676;2023-04-24T01:15:28;1.70;;;1.60;;
1649;SDS011;822;53.670;8.676;2023-04-24T01:17:55;2.13;;;2.03;;
1649;SDS011;822;53.670;8.676;2023-04-24T01:20:22;2.30;;;1.87;;
1649;SDS011;822;53.670;8.676;2023-04-24T01:22:52;2.00;;;1.67;;
1649;SDS011;822;53.670;8.676;2023-04-24T01:25:21;1.50;;;1.40;;
1649;SDS011;822;53.670;8.676;2023-04-24T01:27:48;2.27;;;2.07;;
1649;SDS011;822;53.670;8.676;2023-04-24T01:30:19;1.63;;;1.53;;
1649;SDS011;822;53.670;8.676;2023-04-24T01:32:46;2.57;;;2.37;;
1649;SDS011;822;53.670;8.676;2023-04-24T01:35:14;2.53;;;2.20;;
1649;SDS011;822;53.670;8.676;2023-04-24T01:37:41;2.13;;;1.73;;
1649;SDS011;822;53.670;8.676;2023-04-24T01:40:10;2.27;;;2.17;;
1649;SDS011;822;53.670;8.676;2023-04-24T01:42:37;2.50;;;2.30;;
1649;SDS011;822;53.670;8.676;2023-04-24T01:45:05;2.00;;;1.90;;
1649;SDS011;822;53.670;8.676;2023-04-24T01:47:32;2.03;;;1.83;;
1649;SDS011;822;53.670;8.676;2023-04-24T01:50:00;1.93;;;1.80;;
1649;SDS011;822;53.670;8.676;2023-04-24T01:52:27;2.10;;;1.90;;
1649;SDS011;822;53.670;8.676;2023-04-24T01:54:56;2.60;;;1.80;;
1649;SDS011;822;53.670;8.676;2023-04-24T01:57:26;1.90;;;1.60;;
1649;SDS011;822;53.670;8.676;2023-04-24T01:59:58;1.73;;;1.63;;
1649;SDS011;822;53.670;8.676;2023-04-24T02:02:25;1.97;;;1.87;;
1649;SDS011;822;53.670;8.676;2023-04-24T02:04:53;1.90;;;1.80;;
1649;SDS011;822;53.670;8.676;2023-04-24T02:07:21;1.50;;;1.40;;
1649;SDS011;822;53.670;8.676;2023-04-24T02:09:48;1.10;;;1.07;;
1649;SDS011;822;53.670;8.676;2023-04-24T02:12:15;1.67;;;1.57;;
1649;SDS011;822;53.670;8.676;2023-04-24T02:14:44;1.57;;;1.47;;
1649;SDS011;822;53.670;8.676;2023-04-24T02:17:12;1.60;;;1.50;;
1649;SDS011;822;53.670;8.676;2023-04-24T02:19:40;1.60;;;1.50;;
1649;SDS011;822;53.670;8.676;2023-04-24T02:22:07;2.20;;;2.10;;
1649;SDS011;822;53.670;8.676;2023-04-24T02:24:35;1.40;;;1.30;;
1649;SDS011;822;53.670;8.676;2023-04-24T02:27:03;1.10;;;1.10;;
1649;SDS011;822;53.670;8.676;2023-04-24T02:29:30;1.50;;;1.40;;
1649;SDS011;822;53.670;8.676;2023-04-24T02:31:58;1.90;;;1.40;;
1649;SDS011;822;53.670;8.676;2023-04-24T02:34:26;1.70;;;1.60;;
1649;SDS011;822;53.670;8.676;2023-04-24T02:36:53;1.30;;;1.20;;
1649;SDS011;822;53.670;8.676;2023-04-24T02:39:20;1.33;;;1.33;;
1649;SDS011;822;53.670;8.676;2023-04-24T02:41:47;1.70;;;1.60;;
1649;SDS011;822;53.670;8.676;2023-04-24T02:44:14;1.50;;;1.40;;
1649;SDS011;822;53.670;8.676;2023-04-24T02:46:42;1.67;;;1.57;;
1649;SDS011;822;53.670;8.676;2023-04-24T02:49:11;1.83;;;1.73;;
1649;SDS011;822;53.670;8.676;2023-04-24T02:51:38;2.10;;;1.90;;
1649;SDS011;822;53.670;8.676;2023-04-24T02:54:06;1.60;;;1.50;;
1649;SDS011;822;53.670;8.676;2023-04-24T02:56:35;2.70;;;2.50;;
1649;SDS011;822;53.670;8.676;2023-04-24T02:59:02;2.50;;;2.30;;
1649;SDS011;822;53.670;8.676;2023-04-24T03:01:29;2.00;;;1.90;;
1649;SDS011;822;53.670;8.676;2023-04-24T03:03:56;1.60;;;1.40;;
1649;SDS011;822;53.670;8.676;2023-04-24T03:06:25;2.50;;;2.30;;
1649;SDS011;822;53.670;8.676;2023-04-24T03:08:55;2.87;;;2.20;;
1649;SDS011;822;53.670;8.676;2023-04-24T03:11:22;2.93;;;2.33;;
1649;SDS011;822;53.670;8.676;2023-04-24T03:13:50;2.17;;;2.07;;
1649;SDS011;822;53.670;8.676;2023-04-24T03:16:17;2.63;;;2.43;;
1649;SDS011;822;53.670;8.676;2023-04-24T03:18:44;1.60;;;1.50;;
1649;SDS011;822;53.670;8.676;2023-04-24T03:21:11;2.27;;;1.70;;
1649;SDS011;822;53.670;8.676;2023-04-24T03:23:40;2.30;;;2.10;;
1649;SDS011;822;53.670;8.676;2023-04-24T03:26:07;2.30;;;2.10;;
1649;SDS011;822;53.670;8.676;2023-04-24T03:28:34;2.23;;;2.03;;
1649;SDS011;822;53.670;8.676;2023-04-24T03:31:02;2.90;;;2.70;;
1649;SDS011;822;53.670;8.676;2023-04-24T03:33:29;2.23;;;2.03;;
1649;SDS011;822;53.670;8.676;2023-04-24T03:35:56;2.97;;;2.10;;
1649;SDS011;822;53.670;8.676;2023-04-24T03:38:23;2.37;;;2.17;;
1649;SDS011;822;53.670;8.676;2023-04-24T03:40:51;3.30;;;3.03;;
1649;SDS011;822;53.670;8.676;2023-04-24T03:43:19;3.00;;;2.70;;
1649;SDS011;822;53.670;8.676;2023-04-24T03:45:46;2.63;;;2.43;;
1649;SDS011;822;53.670;8.676;2023-04-24T03:48:13;3.53;;;3.20;;
1649;SDS011;822;53.670;8.676;2023-04-24T03:50:40;3.20;;;2.90;;
1649;SDS011;822;53.670;8.676;2023-04-24T03:53:07;2.77;;;2.57;;
1649;SDS011;822;53.670;8.676;2023-04-24T03:55:34;2.40;;;2.20;;
1649;SDS011;822;53.670;8.676;2023-04-24T03:58:02;3.10;;;2.80;;
1649;SDS011;822;53.670;8.676;2023-04-24T04:00:29;3.90;;;3.37;;
1649;SDS011;822;53.670;8.676;2023-04-24T04:03:02;2.80;;;2.60;;
1649;SDS011;822;53.670;8.676;2023-04-24T04:05:29;3.80;;;3.17;;
1649;SDS011;822;53.670;8.676;2023-04-24T04:07:56;3.20;;;2.50;;
1649;SDS011;822;53.670;8.676;2023-04-24T04:10:23;3.20;;;2.57;;
1649;SDS011;822;53.670;8.676;2023-04-24T04:12:50;3.50;;;2.73;;
1649;SDS011;822;53.670;8.676;2023-04-24T04:15:19;3.07;;;2.83;;
1649;SDS011;822;53.670;8.676;2023-04-24T04:17:46;3.17;;;2.87;;
1649;SDS011;822;53.670;8.676;2023-04-24T04:20:13;3.60;;;3.13;;
1649;SDS011;822;53.670;8.676;2023-04-24T04:22:40;4.10;;;3.20;;
1649;SDS011;822;53.670;8.676;2023-04-24T04:25:07;2.47;;;2.37;;
1649;SDS011;822;53.670;8.676;2023-04-24T04:27:34;3.67;;;2.87;;
1649;SDS011;822;53.670;8.676;2023-04-24T04:30:02;3.43;;;3.13;;
1649;SDS011;822;53.670;8.676;2023-04-24T04:32:32;3.20;;;2.90;;
1649;SDS011;822;53.670;8.676;2023-04-24T04:34:59;2.30;;;2.10;;
1649;SDS011;822;53.670;8.676;2023-04-24T04:37:28;3.70;;;3.40;;
1649;SDS011;822;53.670;8.676;2023-04-24T04:39:56;3.37;;;3.07;;
1649;SDS011;822;53.670;8.676;2023-04-24T04:42:24;3.63;;;3.33;;
1649;SDS011;822;53.670;8.676;2023-04-24T04:44:52;3.80;;;3.13;;
1649;SDS011;822;53.670;8.676;2023-04-24T04:47:20;5.00;;;3.93;;
1649;SDS011;822;53.670;8.676;2023-04-24T04:49:49;3.80;;;3.17;;
1649;SDS011;822;53.670;8.676;2023-04-24T04:52:17;3.90;;;3.50;;
1649;SDS011;822;53.670;8.676;2023-04-24T04:54:44;2.30;;;2.20;;
1649;SDS011;822;53.670;8.676;2023-04-24T04:57:12;5.07;;;3.27;;
1649;SDS011;822;53.670;8.676;2023-04-24T04:59:39;4.30;;;3.90;;
1649;SDS011;822;53.670;8.676;2023-04-24T05:02:07;3.70;;;3.43;;
1649;SDS011;822;53.670;8.676;2023-04-24T05:04:34;3.97;;;3.57;;
1649;SDS011;822;53.670;8.676;2023-04-24T05:07:03;4.60;;;2.90;;
1649;SDS011;822;53.670;8.676;2023-04-24T05:09:30;3.57;;;3.20;;
1649;SDS011;822;53.670;8.676;2023-04-24T05:11:57;2.80;;;2.47;;
1649;SDS011;822;53.670;8.676;2023-04-24T05:14:24;3.03;;;2.37;;
1649;SDS011;822;53.670;8.676;2023-04-24T05:16:54;4.10;;;3.27;;
1649;SDS011;822;53.670;8.676;2023-04-24T05:19:21;5.03;;;3.87;;
1649;SDS011;822;53.670;8.676;2023-04-24T05:21:49;2.30;;;2.00;;
1649;SDS011;822;53.670;8.676;2023-04-24T05:24:17;3.37;;;3.10;;
1649;SDS011;822;53.670;8.676;2023-04-24T05:26:44;3.97;;;3.00;;
1649;SDS011;822;53.670;8.676;2023-04-24T05:29:12;3.97;;;2.90;;
1649;SDS011;822;53.670;8.676;2023-04-24T05:31:39;4.20;;;3.67;;
1649;SDS011;822;53.670;8.676;2023-04-24T05:34:06;4.07;;;3.30;;
1649;SDS011;822;53.670;8.676;2023-04-24T05:36:33;5.10;;;3.20;;
1649;SDS011;822;53.670;8.676;2023-04-24T05:39:00;3.97;;;3.57;;
1649;SDS011;822;53.670;8.676;2023-04-24T05:41:31;8.07;;;4.13;;
1649;SDS011;822;53.670;8.676;2023-04-24T05:43:58;3.40;;;3.07;;
1649;SDS011;822;53.670;8.676;2023-04-24T05:46:25;4.50;;;3.60;;
1649;SDS011;822;53.670;8.676;2023-04-24T05:48:52;4.00;;;3.60;;
1649;SDS011;822;53.670;8.676;2023-04-24T05:51:19;2.70;;;2.47;;
1649;SDS011;822;53.670;8.676;2023-04-24T05:53:49;3.93;;;3.03;;
1649;SDS011;822;53.670;8.676;2023-04-24T05:56:17;3.97;;;3.00;;
1649;SDS011;822;53.670;8.676;2023-04-24T05:58:48;4.97;;;3.47;;
1649;SDS011;822;53.670;8.676;2023-04-24T06:01:15;3.57;;;3.23;;
1649;SDS011;822;53.670;8.676;2023-04-24T06:03:43;3.70;;;3.20;;
1649;SDS011;822;53.670;8.676;2023-04-24T06:06:10;3.13;;;2.93;;
1649;SDS011;822;53.670;8.676;2023-04-24T06:08:37;3.60;;;2.80;;
1649;SDS011;822;53.670;8.676;2023-04-24T06:11:04;4.60;;;3.40;;
1649;SDS011;822;53.670;8.676;2023-04-24T06:13:34;3.53;;;3.23;;
1649;SDS011;822;53.670;8.676;2023-04-24T06:16:03;6.80;;;4.03;;
1649;SDS011;822;53.670;8.676;2023-04-24T06:18:30;5.40;;;3.40;;
1649;SDS011;822;53.670;8.676;2023-04-24T06:20:57;3.27;;;2.87;;
1649;SDS011;822;53.670;8.676;2023-04-24T06:23:25;4.37;;;3.30;;
1649;SDS011;822;53.670;8.676;2023-04-24T06:25:52;4.33;;;3.17;;
1649;SDS011;822;53.670;8.676;2023-04-24T06:28:19;3.20;;;2.90;;
1649;SDS011;822;53.670;8.676;2023-04-24T06:30:46;4.20;;;3.03;;
1649;SDS011;822;53.670;8.676;2023-04-24T06:33:14;3.37;;;3.07;;
1649;SDS011;822;53.670;8.676;2023-04-24T06:35:42;4.20;;;3.30;;
1649;SDS011;822;53.670;8.676;2023-04-24T06:38:10;3.07;;;2.77;;
1649;SDS011;822;53.670;8.676;2023-04-24T06:40:37;3.07;;;2.77;;
1649;SDS011;822;53.670;8.676;2023-04-24T06:43:04;3.27;;;2.97;;
1649;SDS011;822;53.670;8.676;2023-04-24T06:45:31;3.20;;;2.83;;
1649;SDS011;822;53.670;8.676;2023-04-24T06:47:58;4.27;;;3.00;;
1649;SDS011;822;53.670;8.676;2023-04-24T06:50:27;2.63;;;2.40;;
1649;SDS011;822;53.670;8.676;2023-04-24T06:52:54;3.80;;;3.00;;
1649;SDS011;822;53.670;8.676;2023-04-24T06:55:21;2.90;;;2.60;;
1649;SDS011;822;53.670;8.676;2023-04-24T06:57:48;3.33;;;3.03;;
1649;SDS011;822;53.670;8.676;2023-04-24T07:00:16;3.00;;;2.80;;
1649;SDS011;822;53.670;8.676;2023-04-24T07:02:43;3.37;;;2.77;;
1649;SDS011;822;53.670;8.676;2023-04-24T07:05:10;3.80;;;3.50;;
1649;SDS011;822;53.670;8.676;2023-04-24T07:07:39;2.90;;;2.53;;
1649;SDS011;822;53.670;8.676;2023-04-24T07:10:07;4.20;;;2.93;;
1649;SDS011;822;53.670;8.676;2023-04-24T07:12:34;4.13;;;3.13;;
1649;SDS011;822;53.670;8.676;2023-04-24T07:15:02;4.30;;;3.77;;
1649;SDS011;822;53.670;8.676;2023-04-24T07:17:30;3.40;;;2.83;;
1649;SDS011;822;53.670;8.676;2023-04-24T07:19:57;3.27;;;2.97;;
1649;SDS011;822;53.670;8.676;2023-04-24T07:22:24;3.97;;;3.27;;
1649;SDS011;822;53.670;8.676;2023-04-24T07:24:53;3.17;;;2.87;;
1649;SDS011;822;53.670;8.676;2023-04-24T07:27:22;3.60;;;3.30;;
1649;SDS011;822;53.670;8.676;2023-04-24T07:29:49;3.17;;;2.90;;
1649;SDS011;822;53.670;8.676;2023-04-24T07:32:19;5.23;;;2.30;;
1649;SDS011;822;53.670;8.676;2023-04-24T07:34:48;1.93;;;1.73;;
1649;SDS011;822;53.670;8.676;2023-04-24T07:37:15;2.77;;;2.57;;
1649;SDS011;822;53.670;8.676;2023-04-24T07:39:43;4.00;;;3.63;;
1649;SDS011;822;53.670;8.676;2023-04-24T07:42:11;3.30;;;3.00;;
1649;SDS011;822;53.670;8.676;2023-04-24T07:44:39;3.93;;;3.20;;
1649;SDS011;822;53.670;8.676;2023-04-24T07:47:06;2.77;;;2.57;;
1649;SDS011;822;53.670;8.676;2023-04-24T07:49:33;2.83;;;2.60;;
1649;SDS011;822;53.670;8.676;2023-04-24T07:52:00;2.87;;;2.43;;
1649;SDS011;822;53.670;8.676;2023-04-24T07:54:27;2.70;;;2.50;;
1649;SDS011;822;53.670;8.676;2023-04-24T07:56:55;2.90;;;2.57;;
1649;SDS011;822;53.670;8.676;2023-04-24T07:59:24;3.10;;;2.80;;
1649;SDS011;822;53.670;8.676;2023-04-24T08:01:52;3.90;;;2.80;;
1649;SDS011;822;53.670;8.676;2023-04-24T08:04:19;2.60;;;2.40;;
1649;SDS011;822;53.670;8.676;2023-04-24T08:06:51;2.93;;;2.63;;
1649;SDS011;822;53.670;8.676;2023-04-24T08:09:19;3.00;;;2.60;;
1649;SDS011;822;53.670;8.676;2023-04-24T08:11:46;2.93;;;2.70;;
1649;SDS011;822;53.670;8.676;2023-04-24T08:14:13;2.63;;;2.43;;
1649;SDS011;822;53.670;8.676;2023-04-24T08:16:41;2.60;;;2.30;;
1649;SDS011;822;53.670;8.676;2023-04-24T08:19:08;2.93;;;2.70;;
1649;SDS011;822;53.670;8.676;2023-04-24T08:21:35;2.80;;;2.60;;
1649;SDS011;822;53.670;8.676;2023-04-24T08:24:02;3.17;;;2.53;;
1649;SDS011;822;53.670;8.676;2023-04-24T08:26:32;3.40;;;2.87;;
1649;SDS011;822;53.670;8.676;2023-04-24T08:29:00;2.60;;;2.40;;
1649;SDS011;822;53.670;8.676;2023-04-24T08:31:27;2.93;;;2.40;;
1649;SDS011;822;53.670;8.676;2023-04-24T08:33:56;2.43;;;2.10;;
1649;SDS011;822;53.670;8.676;2023-04-24T08:36:23;3.80;;;2.43;;
1649;SDS011;822;53.670;8.676;2023-04-24T08:38:53;2.80;;;2.53;;
1649;SDS011;822;53.670;8.676;2023-04-24T08:41:21;3.87;;;2.73;;
1649;SDS011;822;53.670;8.676;2023-04-24T08:43:54;3.13;;;2.83;;
1649;SDS011;822;53.670;8.676;2023-04-24T08:46:23;3.47;;;3.10;;
1649;SDS011;822;53.670;8.676;2023-04-24T08:48:51;3.03;;;2.63;;
1649;SDS011;822;53.670;8.676;2023-04-24T08:51:20;4.33;;;3.37;;
1649;SDS011;822;53.670;8.676;2023-04-24T08:53:47;2.63;;;2.43;;
1649;SDS011;822;53.670;8.676;2023-04-24T08:56:15;2.97;;;2.70;;
1649;SDS011;822;53.670;8.676;2023-04-24T08:58:45;2.03;;;1.93;;
1649;SDS011;822;53.670;8.676;2023-04-24T09:01:12;3.47;;;2.93;;
1649;SDS011;822;53.670;8.676;2023-04-24T09:03:39;2.60;;;2.33;;
1649;SDS011;822;53.670;8.676;2023-04-24T09:06:07;3.20;;;3.00;;
1649;SDS011;822;53.670;8.676;2023-04-24T09:08:37;3.97;;;3.60;;
1649;SDS011;822;53.670;8.676;2023-04-24T09:11:07;4.20;;;3.53;;
1649;SDS011;822;53.670;8.676;2023-04-24T09:13:34;3.73;;;3.30;;
1649;SDS011;822;53.670;8.676;2023-04-24T09:16:03;3.17;;;2.90;;
1649;SDS011;822;53.670;8.676;2023-04-24T09:18:30;3.30;;;2.80;;
1649;SDS011;822;53.670;8.676;2023-04-24T09:20:59;3.77;;;3.30;;
1649;SDS011;822;53.670;8.676;2023-04-24T09:23:28;3.57;;;2.80;;
1649;SDS011;822;53.670;8.676;2023-04-24T09:25:58;3.43;;;3.13;;
1649;SDS011;822;53.670;8.676;2023-04-24T09:28:30;3.20;;;2.90;;
1649;SDS011;822;53.670;8.676;2023-04-24T09:31:05;5.70;;;3.77;;
1649;SDS011;822;53.670;8.676;2023-04-24T09:33:33;3.30;;;3.00;;
1649;SDS011;822;53.670;8.676;2023-04-24T09:36:04;5.00;;;3.00;;
1649;SDS011;822;53.670;8.676;2023-04-24T09:38:32;4.50;;;3.20;;
1649;SDS011;822;53.670;8.676;2023-04-24T09:41:02;3.40;;;3.00;;
1649;SDS011;822;53.670;8.676;2023-04-24T09:43:31;3.40;;;3.10;;
1649;SDS011;822;53.670;8.676;2023-04-24T09:45:59;3.47;;;2.93;;
1649;SDS011;822;53.670;8.676;2023-04-24T09:48:33;7.60;;;3.90;;
1649;SDS011;822;53.670;8.676;2023-04-24T09:51:06;3.73;;;3.40;;
1649;SDS011;822;53.670;8.676;2023-04-24T09:53:35;4.63;;;3.13;;
1649;SDS011;822;53.670;8.676;2023-04-24T09:56:08;3.77;;;3.07;;
1649;SDS011;822;53.670;8.676;2023-04-24T09:58:37;4.53;;;3.23;;
1649;SDS011;822;53.670;8.676;2023-04-24T10:01:04;3.40;;;3.00;;
1649;SDS011;822;53.670;8.676;2023-04-24T10:03:32;3.73;;;3.43;;
1649;SDS011;822;53.670;8.676;2023-04-24T10:06:00;4.30;;;3.57;;
1649;SDS011;822;53.670;8.676;2023-04-24T10:08:32;3.83;;;3.43;;
1649;SDS011;822;53.670;8.676;2023-04-24T10:11:00;3.90;;;3.50;;
1649;SDS011;822;53.670;8.676;2023-04-24T10:13:29;2.70;;;2.50;;
1649;SDS011;822;53.670;8.676;2023-04-24T10:15:58;3.60;;;3.30;;
1649;SDS011;822;53.670;8.676;2023-04-24T10:18:27;3.50;;;2.63;;
1649;SDS011;822;53.670;8.676;2023-04-24T10:20:55;4.40;;;4.00;;
1649;SDS011;822;53.670;8.676;2023-04-24T10:23:23;3.67;;;3.30;;
1649;SDS011;822;53.670;8.676;2023-04-24T10:25:52;3.67;;;2.97;;
1649;SDS011;822;53.670;8.676;2023-04-24T10:28:20;3.73;;;2.67;;
1649;SDS011;822;53.670;8.676;2023-04-24T10:30:49;4.20;;;3.20;;
1649;SDS011;822;53.670;8.676;2023-04-24T10:33:19;3.33;;;3.00;;
1649;SDS011;822;53.670;8.676;2023-04-24T10:35:48;3.97;;;3.60;;
1649;SDS011;822;53.670;8.676;2023-04-24T10:38:18;5.50;;;4.53;;
1649;SDS011;822;53.670;8.676;2023-04-24T10:40:50;3.83;;;3.37;;
1649;SDS011;822;53.670;8.676;2023-04-24T10:43:17;4.47;;;4.07;;
1649;SDS011;822;53.670;8.676;2023-04-24T10:48:29;3.90;;;3.10;;
1649;SDS011;822;53.670;8.676;2023-04-24T10:50:57;4.77;;;3.97;;
1649;SDS011;822;53.670;8.676;2023-04-24T10:53:26;3.83;;;3.43;;
1649;SDS011;822;53.670;8.676;2023-04-24T10:55:57;3.67;;;3.23;;
1649;SDS011;822;53.670;8.676;2023-04-24T10:58:36;4.20;;;2.80;;
1649;SDS011;822;53.670;8.676;2023-04-24T11:01:06;5.03;;;3.07;;
1649;SDS011;822;53.670;8.676;2023-04-24T11:03:34;3.30;;;2.77;;
1649;SDS011;822;53.670;8.676;2023-04-24T11:06:03;3.83;;;3.07;;
1649;SDS011;822;53.670;8.676;2023-04-24T11:08:32;4.30;;;3.53;;
1649;SDS011;822;53.670;8.676;2023-04-24T11:11:08;4.20;;;3.73;;
1649;SDS011;822;53.670;8.676;2023-04-24T11:16:44;3.30;;;3.00;;
1649;SDS011;822;53.670;8.676;2023-04-24T11:19:23;4.47;;;3.60;;
1649;SDS011;822;53.670;8.676;2023-04-24T11:21:55;3.50;;;2.90;;
1649;SDS011;822;53.670;8.676;2023-04-24T11:24:30;3.87;;;3.37;;
1649;SDS011;822;53.670;8.676;2023-04-24T11:26:59;3.23;;;2.93;;
1649;SDS011;822;53.670;8.676;2023-04-24T11:29:41;3.87;;;2.97;;
1649;SDS011;822;53.670;8.676;2023-04-24T11:32:18;3.20;;;2.70;;
1649;SDS011;822;53.670;8.676;2023-04-24T11:34:53;2.57;;;2.10;;
1649;SDS011;822;53.670;8.676;2023-04-24T11:37:23;2.77;;;2.20;;
1649;SDS011;822;53.670;8.676;2023-04-24T11:39:56;4.07;;;2.60;;
1649;SDS011;822;53.670;8.676;2023-04-24T11:42:24;3.43;;;2.43;;
1649;SDS011;822;53.670;8.676;2023-04-24T11:44:53;2.87;;;2.60;;
1649;SDS011;822;53.670;8.676;2023-04-24T11:47:28;1.97;;;1.70;;
1649;SDS011;822;53.670;8.676;2023-04-24T11:49:58;1.77;;;1.50;;
1649;SDS011;822;53.670;8.676;2023-04-24T11:52:26;2.47;;;1.30;;
1649;SDS011;822;53.670;8.676;2023-04-24T11:55:00;1.33;;;1.23;;
1649;SDS011;822;53.670;8.676;2023-04-24T11:57:29;1.00;;;1.00;;
1649;SDS011;822;53.670;8.676;2023-04-24T11:59:58;1.23;;;1.13;;
1649;SDS011;822;53.670;8.676;2023-04-24T12:02:27;1.30;;;1.10;;
1649;SDS011;822;53.670;8.676;2023-04-24T12:04:54;1.37;;;1.27;;
1649;SDS011;822;53.670;8.676;2023-04-24T12:07:22;2.30;;;2.00;;
1649;SDS011;822;53.670;8.676;2023-04-24T12:09:56;2.83;;;2.60;;
1649;SDS011;822;53.670;8.676;2023-04-24T12:12:25;2.37;;;1.60;;
1649;SDS011;822;53.670;8.676;2023-04-24T12:14:54;2.30;;;2.10;;
1649;SDS011;822;53.670;8.676;2023-04-24T12:17:24;2.50;;;2.30;;
1649;SDS011;822;53.670;8.676;2023-04-24T12:19:56;2.93;;;2.03;;
1649;SDS011;822;53.670;8.676;2023-04-24T12:22:24;3.00;;;2.30;;
1649;SDS011;822;53.670;8.676;2023-04-24T12:24:55;5.43;;;3.77;;
1649;SDS011;822;53.670;8.676;2023-04-24T12:27:25;2.70;;;2.50;;
1649;SDS011;822;53.670;8.676;2023-04-24T12:29:52;3.80;;;2.70;;
1649;SDS011;822;53.670;8.676;2023-04-24T12:32:20;6.03;;;2.93;;
1649;SDS011;822;53.670;8.676;2023-04-24T12:34:49;3.37;;;3.00;;
1649;SDS011;822;53.670;8.676;2023-04-24T12:37:20;4.20;;;3.37;;
1649;SDS011;822;53.670;8.676;2023-04-24T12:39:58;4.97;;;4.40;;
1649;SDS011;822;53.670;8.676;2023-04-24T12:42:31;4.87;;;4.40;;
1649;SDS011;822;53.670;8.676;2023-04-24T12:44:59;5.07;;;4.23;;
1649;SDS011;822;53.670;8.676;2023-04-24T12:47:28;5.10;;;4.00;;
1649;SDS011;822;53.670;8.676;2023-04-24T12:49:56;4.33;;;3.93;;
1649;SDS011;822;53.670;8.676;2023-04-24T12:52:24;5.90;;;4.57;;
1649;SDS011;822;53.670;8.676;2023-04-24T12:54:52;3.90;;;3.43;;
1649;SDS011;822;53.670;8.676;2023-04-24T12:57:22;4.67;;;3.83;;
1649;SDS011;822;53.670;8.676;2023-04-24T12:59:51;3.97;;;3.47;;
1649;SDS011;822;53.670;8.676;2023-04-24T13:02:19;4.90;;;3.30;;
1649;SDS011;822;53.670;8.676;2023-04-24T13:04:47;5.77;;;4.07;;
1649;SDS011;822;53.670;8.676;2023-04-24T13:07:15;4.13;;;3.70;;
1649;SDS011;822;53.670;8.676;2023-04-24T13:09:44;6.97;;;4.83;;
1649;SDS011;822;53.670;8.676;2023-04-24T13:12:12;6.70;;;5.70;;
1649;SDS011;822;53.670;8.676;2023-04-24T13:14:40;6.63;;;4.27;;
1649;SDS011;822;53.670;8.676;2023-04-24T13:17:07;5.00;;;4.07;;
1649;SDS011;822;53.670;8.676;2023-04-24T13:19:37;5.90;;;4.20;;
1649;SDS011;822;53.670;8.676;2023-04-24T13:22:05;7.80;;;5.00;;
1649;SDS011;822;53.670;8.676;2023-04-24T13:24:33;8.17;;;6.47;;
1649;SDS011;822;53.670;8.676;2023-04-24T13:27:02;8.67;;;5.50;;
1649;SDS011;822;53.670;8.676;2023-04-24T13:29:29;6.70;;;5.30;;
1649;SDS011;822;53.670;8.676;2023-04-24T13:31:56;5.60;;;4.80;;
1649;SDS011;822;53.670;8.676;2023-04-24T13:34:24;6.27;;;4.70;;
1649;SDS011;822;53.670;8.676;2023-04-24T13:39:25;4.00;;;3.60;;
1649;SDS011;822;53.670;8.676;2023-04-24T13:41:52;4.97;;;4.47;;
1649;SDS011;822;53.670;8.676;2023-04-24T13:44:20;4.80;;;4.40;;
1649;SDS011;822;53.670;8.676;2023-04-24T13:46:49;4.83;;;4.37;;
1649;SDS011;822;53.670;8.676;2023-04-24T13:49:22;4.53;;;3.60;;
1649;SDS011;822;53.670;8.676;2023-04-24T13:51:51;6.20;;;4.20;;
1649;SDS011;822;53.670;8.676;2023-04-24T13:54:19;7.23;;;4.17;;
1649;SDS011;822;53.670;8.676;2023-04-24T13:56:47;11.83;;;5.00;;
1649;SDS011;822;53.670;8.676;2023-04-24T13:59:14;4.90;;;4.33;;
1649;SDS011;822;53.670;8.676;2023-04-24T14:01:42;4.90;;;4.20;;
1649;SDS011;822;53.670;8.676;2023-04-24T14:04:10;5.00;;;4.10;;
1649;SDS011;822;53.670;8.676;2023-04-24T14:06:37;5.70;;;4.30;;
1649;SDS011;822;53.670;8.676;2023-04-24T14:09:05;5.90;;;4.10;;
1649;SDS011;822;53.670;8.676;2023-04-24T14:11:33;5.07;;;4.57;;
1649;SDS011;822;53.670;8.676;2023-04-24T14:14:01;4.20;;;3.80;;
1649;SDS011;822;53.670;8.676;2023-04-24T14:16:28;3.70;;;3.30;;
1649;SDS011;822;53.670;8.676;2023-04-24T14:18:57;6.43;;;3.90;;
1649;SDS011;822;53.670;8.676;2023-04-24T14:23:56;3.93;;;3.63;;
1649;SDS011;822;53.670;8.676;2023-04-24T14:26:23;7.33;;;3.33;;
1649;SDS011;822;53.670;8.676;2023-04-24T14:28:50;3.70;;;2.80;;
1649;SDS011;822;53.670;8.676;2023-04-24T14:31:18;8.03;;;3.00;;
1649;SDS011;822;53.670;8.676;2023-04-24T14:33:45;3.53;;;3.23;;
1649;SDS011;822;53.670;8.676;2023-04-24T14:36:13;3.07;;;2.77;;
1649;SDS011;822;53.670;8.676;2023-04-24T14:38:45;6.27;;;2.70;;
1649;SDS011;822;53.670;8.676;2023-04-24T14:41:12;2.47;;;2.27;;
1649;SDS011;822;53.670;8.676;2023-04-24T14:43:41;3.00;;;2.77;;
1649;SDS011;822;53.670;8.676;2023-04-24T14:46:10;3.77;;;2.77;;
1649;SDS011;822;53.670;8.676;2023-04-24T14:48:37;2.60;;;2.40;;
1649;SDS011;822;53.670;8.676;2023-04-24T14:51:04;3.47;;;3.17;;
1649;SDS011;822;53.670;8.676;2023-04-24T14:53:32;3.17;;;2.30;;
1649;SDS011;822;53.670;8.676;2023-04-24T14:56:00;3.43;;;3.10;;
1649;SDS011;822;53.670;8.676;2023-04-24T14:58:27;4.47;;;3.17;;
1649;SDS011;822;53.670;8.676;2023-04-24T15:00:55;2.70;;;2.50;;
1649;SDS011;822;53.670;8.676;2023-04-24T15:03:22;10.13;;;2.57;;
1649;SDS011;822;53.670;8.676;2023-04-24T15:05:49;3.50;;;3.10;;
1649;SDS011;822;53.670;8.676;2023-04-24T15:08:17;2.90;;;2.70;;
1649;SDS011;822;53.670;8.676;2023-04-24T15:10:47;3.40;;;2.40;;
1649;SDS011;822;53.670;8.676;2023-04-24T15:13:15;3.50;;;1.83;;
1649;SDS011;822;53.670;8.676;2023-04-24T15:15:47;3.33;;;2.43;;
1649;SDS011;822;53.670;8.676;2023-04-24T15:18:14;3.80;;;2.90;;
1649;SDS011;822;53.670;8.676;2023-04-24T15:20:41;2.63;;;2.43;;
1649;SDS011;822;53.670;8.676;2023-04-24T15:25:39;16.03;;;3.43;;
1649;SDS011;822;53.670;8.676;2023-04-24T15:28:08;5.87;;;3.30;;
1649;SDS011;822;53.670;8.676;2023-04-24T15:30:36;5.00;;;2.83;;
1649;SDS011;822;53.670;8.676;2023-04-24T15:33:03;2.70;;;2.47;;
1649;SDS011;822;53.670;8.676;2023-04-24T15:35:30;3.27;;;2.97;;
1649;SDS011;822;53.670;8.676;2023-04-24T15:37:57;6.60;;;3.07;;
1649;SDS011;822;53.670;8.676;2023-04-24T15:40:25;3.20;;;2.90;;
1649;SDS011;822;53.670;8.676;2023-04-24T15:42:58;3.40;;;3.10;;
1649;SDS011;822;53.670;8.676;2023-04-24T15:45:27;3.53;;;3.20;;
1649;SDS011;822;53.670;8.676;2023-04-24T15:47:55;2.57;;;2.00;;
1649;SDS011;822;53.670;8.676;2023-04-24T15:50:25;3.47;;;2.27;;